ENSD/SDN METAR and TAF weather

Enter ICAO airport designator
Station Type Date Time Source
ENSD METAR 2021/09/25 12:20 UTC NOAA

ENSD 251220Z VRB03KT 9999 VCSH FEW025 SCT035 BKN050 11/05 Q1010 RMK WIND 1138FT VRB03KT


Station Type Date Time Source
ENSD Decoded METAR 2021/09/25 12:20 UTC NOAA

Sandane / Anda, Norway (ENSD) 61-50N 006-07E 60M
Sep 25, 2021 - 08:20 AM EDT / 2021.09.25 1220 UTC
Wind: Variable at 3 MPH (3 KT):0
Visibility: greater than 7 mile(s):0
Sky conditions: mostly cloudy
Weather: showers in the vicinity
Temperature: 51 F (11 C)
Dew Point: 41 F (5 C)
Relative Humidity: 66%
Pressure (altimeter): 29.83 in. Hg (1010 hPa)
ob: ENSD 251220Z VRB03KT 9999 VCSH FEW025 SCT035 BKN050 11/05 Q1010 RMK WIND 1138FT VRB03KT
cycle: 12

Station Type Date Time Source
ENSD TAF UTC NOAA

Error!

Example: see airport list